Time;durP1;ratioP1;P1;durP2;ratioP2;P2;SDS_P1;SDS_P2;PMS_P1;PMS_P2;Temp;Humidity;BMP_temperature;BMP_pressure;BME280_temperature;BME280_humidity;BME280_pressure;Samples;Min_cycle;Max_cycle;Signal;HPM_P1;HPM_P2
2023/10/13 00:02:27;;;;;;;18.38;8.25;;;;;;;;;;10398130;28;20025;-69
2023/10/13 00:07:28;;;;;;;12.02;7.25;;;;;;;;;;10423510;28;20077;-69
2023/10/13 00:12:31;;;;;;;21.73;7.35;;;;;;;;;;10423074;28;20021;-69
2023/10/13 00:17:32;;;;;;;13.77;6.40;;;;;;;;;;10422583;28;20311;-69
2023/10/13 00:22:33;;;;;;;10.23;5.88;;;;;;;;;;10422743;28;20072;-69
2023/10/13 00:27:36;;;;;;;9.93;7.00;;;;;;;;;;10426488;28;20026;-68
2023/10/13 00:32:39;;;;;;;15.55;6.63;;;;;;;;;;10421707;28;20025;-69
2023/10/13 00:37:46;;;;;;;13.20;6.63;;;;;;;;;;10421882;28;20076;-69
2023/10/13 00:42:52;;;;;;;9.65;6.18;;;;;;;;;;10421596;28;20212;-68
2023/10/13 00:47:57;;;;;;;10.77;6.32;;;;;;;;;;10421622;28;20059;-68
2023/10/13 00:52:57;;;;;;;12.52;7.88;;;;;;;;;;10421328;28;20219;-68
2023/10/13 00:58:02;;;;;;;11.60;6.28;;;;;;;;;;10421450;28;20025;-68
2023/10/13 01:03:06;;;;;;;14.00;6.80;;;;;;;;;;10420453;28;20080;-68
2023/10/13 01:08:11;;;;;;;13.20;6.38;;;;;;;;;;10419352;28;20021;-67
2023/10/13 01:13:11;;;;;;;10.38;5.95;;;;;;;;;;10425222;28;20021;-68
2023/10/13 01:18:16;;;;;;;13.68;6.60;;;;;;;;;;10419271;28;20329;-68
2023/10/13 01:23:23;;;;;;;13.82;6.18;;;;;;;;;;10379656;28;20025;-68
2023/10/13 01:28:24;;;;;;;16.20;7.20;;;;;;;;;;10420280;28;20181;-68
2023/10/13 01:33:28;;;;;;;11.88;6.40;;;;;;;;;;10420114;28;20025;-68
2023/10/13 01:38:33;;;;;;;10.07;6.07;;;;;;;;;;10419993;28;20041;-68
2023/10/13 01:43:34;;;;;;;10.05;6.72;;;;;;;;;;10419516;28;20574;-68
2023/10/13 01:48:38;;;;;;;9.55;6.90;;;;;;;;;;10400852;28;20178;-68
2023/10/13 01:53:39;;;;;;;18.33;7.15;;;;;;;;;;10405799;28;20016;-68
2023/10/13 01:58:43;;;;;;;13.88;7.32;;;;;;;;;;10418946;28;20036;-68
2023/10/13 02:03:47;;;;;;;10.80;7.30;;;;;;;;;;10418626;28;20087;-69
2023/10/13 02:08:51;;;;;;;12.90;8.15;;;;;;;;;;10417976;28;20025;-68
2023/10/13 02:13:53;;;;;;;22.77;8.00;;;;;;;;;;10422683;28;20025;-68
2023/10/13 02:18:54;;;;;;;13.85;8.20;;;;;;;;;;10418111;28;20056;-67
2023/10/13 02:24:00;;;;;;;13.88;7.75;;;;;;;;;;10417019;28;20338;-67
2023/10/13 02:29:06;;;;;;;15.55;7.93;;;;;;;;;;10416410;28;20013;-67
2023/10/13 02:34:08;;;;;;;14.93;8.35;;;;;;;;;;10415553;28;20215;-67
2023/10/13 02:39:08;;;;;;;12.43;8.68;;;;;;;;;;10420809;28;20049;-67
2023/10/13 02:44:11;;;;;;;12.93;7.72;;;;;;;;;;10416790;28;20219;-68
2023/10/13 02:49:11;;;;;;;17.05;8.05;;;;;;;;;;10417162;28;20172;-67
2023/10/13 02:54:15;;;;;;;13.98;7.85;;;;;;;;;;10416958;28;20044;-67
2023/10/13 02:59:15;;;;;;;12.32;7.45;;;;;;;;;;10416437;28;20044;-68
2023/10/13 03:04:23;;;;;;;15.15;8.40;;;;;;;;;;10416401;28;20051;-68
2023/10/13 03:09:23;;;;;;;21.98;8.32;;;;;;;;;;10416535;28;20010;-69
2023/10/13 03:14:24;;;;;;;12.93;8.57;;;;;;;;;;10417162;28;20331;-67
2023/10/13 03:19:32;;;;;;;17.25;8.32;;;;;;;;;;10416334;28;20068;-67
2023/10/13 03:24:35;;;;;;;530.90;487.38;;;;;;;;;;10416127;28;20016;-67
2023/10/13 03:29:36;;;;;;;605.08;544.83;;;;;;;;;;10415952;28;20020;-66
2023/10/13 03:34:41;;;;;;;729.95;630.10;;;;;;;;;;10419000;28;20219;-66
2023/10/13 03:39:44;;;;;;;731.55;570.08;;;;;;;;;;10424228;28;20068;-67
2023/10/13 03:44:48;;;;;;;658.72;587.20;;;;;;;;;;10423183;28;20044;-68
2023/10/13 03:49:51;;;;;;;676.83;610.05;;;;;;;;;;10423996;28;20405;-67
2023/10/13 03:54:51;;;;;;;677.58;606.28;;;;;;;;;;10422129;28;20029;-67
2023/10/13 03:59:51;;;;;;;637.50;578.38;;;;;;;;;;10421570;28;20017;-68
2023/10/13 04:04:55;;;;;;;658.22;592.33;;;;;;;;;;10423226;28;20013;-67
2023/10/13 04:11:12;;;;;;;689.25;616.20;;;;;;;;;;10421927;28;20307;-67
2023/10/13 04:15:18;;;;;;;645.72;576.58;;;;;;;;;;10423335;28;20028;-68
2023/10/13 04:20:32;;;;;;;633.05;572.33;;;;;;;;;;10421386;28;20036;-67
2023/10/13 04:25:52;;;;;;;691.05;622.00;;;;;;;;;;10422427;28;20013;-68
2023/10/13 04:36:21;;;;;;;638.63;579.17;;;;;;;;;;10422519;28;20374;-68
2023/10/13 04:41:31;;;;;;;697.72;627.45;;;;;;;;;;10421788;28;20107;-67
2023/10/13 04:51:50;;;;;;;712.67;641.78;;;;;;;;;;10422514;28;20271;-68
2023/10/13 04:56:59;;;;;;;667.42;606.88;;;;;;;;;;10420334;28;20021;-70
2023/10/13 05:45:23;;;;;;;742.60;662.88;;;;;;;;;;10418393;28;20207;-69
2023/10/13 06:32:33;;;;;;;848.83;757.22;;;;;;;;;;10376804;28;20014;-69
2023/10/13 06:37:34;;;;;;;878.00;786.38;;;;;;;;;;10416369;28;20247;-69
2023/10/13 06:42:34;;;;;;;816.85;732.42;;;;;;;;;;10416145;28;20029;-69
2023/10/13 06:47:42;;;;;;;932.77;838.30;;;;;;;;;;10416734;28;20319;-69
2023/10/13 06:52:42;;;;;;;;;;;;;;;;;;10416525;28;20301;-69
2023/10/13 06:57:44;;;;;;;934.25;839.95;;;;;;;;;;10416296;28;19979;-69
2023/10/13 07:02:46;;;;;;;934.90;841.03;;;;;;;;;;10416687;28;20045;-69
2023/10/13 07:07:47;;;;;;;945.90;851.42;;;;;;;;;;10415656;28;20040;-69
2023/10/13 07:12:49;;;;;;;927.88;834.00;;;;;;;;;;10416455;28;20029;-69
2023/10/13 07:17:59;;;;;;;939.22;844.20;;;;;;;;;;10414161;28;20025;-69
2023/10/13 07:23:11;;;;;;;911.38;817.75;;;;;;;;;;10415326;28;20258;-70
2023/10/13 07:28:11;;;;;;;882.85;790.85;;;;;;;;;;10414284;28;20014;-68
2023/10/13 07:33:13;;;;;;;954.50;859.63;;;;;;;;;;10414806;28;20294;-69
2023/10/13 07:38:14;;;;;;;952.75;857.72;;;;;;;;;;10414853;28;20073;-69
2023/10/13 07:43:20;;;;;;;958.00;863.40;;;;;;;;;;10415107;28;20345;-69
2023/10/13 07:48:21;;;;;;;967.80;872.65;;;;;;;;;;10414515;28;20022;-69
2023/10/13 07:53:24;;;;;;;950.90;856.43;;;;;;;;;;10414995;28;20084;-69
2023/10/13 07:58:24;;;;;;;978.10;882.00;;;;;;;;;;10414066;28;20029;-68
2023/10/13 08:03:44;;;;;;;994.90;898.15;;;;;;;;;;10413785;28;20026;-69
2023/10/13 08:08:54;;;;;;;1003.20;906.10;;;;;;;;;;10414483;28;20208;-70
2023/10/13 08:14:11;;;;;;;994.97;897.75;;;;;;;;;;10414480;28;20093;-70
2023/10/13 08:19:14;;;;;;;1027.70;928.65;;;;;;;;;;10415311;28;20059;-70
2023/10/13 08:24:15;;;;;;;1079.60;977.55;;;;;;;;;;10427617;28;20029;-70
2023/10/13 08:34:23;;;;;;;1077.30;975.15;;;;;;;;;;10421657;28;20105;-70
2023/10/13 08:44:46;;;;;;;26.92;10.45;;;;;;;;;;10421096;28;20029;-69
2023/10/13 08:49:51;;;;;;;30.13;10.30;;;;;;;;;;10421413;28;20018;-69
2023/10/13 08:55:36;;;;;;;27.20;9.68;;;;;;;;;;10420387;28;20271;-69
2023/10/13 09:05:54;;;;;;;293.88;272.60;;;;;;;;;;10421247;28;20026;-70
2023/10/13 09:11:10;;;;;;;253.45;235.18;;;;;;;;;;10419646;28;20259;-70
2023/10/13 09:17:07;;;;;;;578.05;532.47;;;;;;;;;;10419760;28;20276;-70
2023/10/13 09:26:41;;;;;;;768.70;705.20;;;;;;;;;;10414169;28;20025;-70
2023/10/13 09:31:44;;;;;;;1127.90;999.90;;;;;;;;;;10417620;28;20219;-70
2023/10/13 09:36:47;;;;;;;1149.78;999.90;;;;;;;;;;10417557;28;20017;-70
2023/10/13 09:41:53;;;;;;;34.17;13.27;;;;;;;;;;10418932;28;20299;-69
2023/10/13 09:46:54;;;;;;;440.08;398.60;;;;;;;;;;10418716;28;20083;-69
2023/10/13 09:52:00;;;;;;;1186.70;999.90;;;;;;;;;;10418348;28;20068;-71
2023/10/13 09:57:02;;;;;;;1190.17;999.90;;;;;;;;;;10421309;28;20315;-70
2023/10/13 10:02:25;;;;;;;1171.57;999.90;;;;;;;;;;10418698;28;20014;-70
2023/10/13 10:07:28;;;;;;;1173.50;999.90;;;;;;;;;;10417665;28;20036;-70
2023/10/13 10:12:29;;;;;;;1179.75;999.90;;;;;;;;;;10417529;28;20350;-70
2023/10/13 10:17:33;;;;;;;1169.05;999.90;;;;;;;;;;10417601;28;20025;-71
2023/10/13 10:22:33;;;;;;;1200.15;999.90;;;;;;;;;;10417754;28;20037;-70
2023/10/13 10:27:34;;;;;;;1205.43;999.90;;;;;;;;;;10417218;28;20302;-70
2023/10/13 10:32:34;;;;;;;1214.57;999.90;;;;;;;;;;10417232;28;20017;-70
2023/10/13 10:37:35;;;;;;;1220.60;999.90;;;;;;;;;;10417423;28;20049;-70
2023/10/13 10:42:40;;;;;;;1225.15;999.90;;;;;;;;;;10416065;28;20044;-70
2023/10/13 10:47:47;;;;;;;1241.68;999.90;;;;;;;;;;10416626;28;20021;-70
2023/10/13 10:52:48;;;;;;;1243.57;999.90;;;;;;;;;;10414935;28;20025;-68
2023/10/13 10:57:58;;;;;;;1221.85;999.90;;;;;;;;;;10416256;28;20029;-70
2023/10/13 11:02:58;;;;;;;1246.85;999.90;;;;;;;;;;10415539;28;20053;-70
2023/10/13 11:07:59;;;;;;;1218.03;999.90;;;;;;;;;;10415767;28;20025;-70
2023/10/13 11:13:11;;;;;;;1272.72;999.90;;;;;;;;;;10415982;28;20078;-68
2023/10/13 11:18:21;;;;;;;1239.90;999.90;;;;;;;;;;10415612;28;20128;-71
2023/10/13 11:23:25;;;;;;;1198.10;999.90;;;;;;;;;;10374948;28;20181;-69
2023/10/13 11:28:28;;;;;;;251.57;224.20;;;;;;;;;;10413589;28;20029;-70
2023/10/13 11:33:29;;;;;;;1220.88;999.90;;;;;;;;;;10415463;28;20120;-69
2023/10/13 11:38:49;;;;;;;1020.78;925.00;;;;;;;;;;10415303;28;20056;-69
2023/10/13 11:48:54;;;;;;;1190.45;999.90;;;;;;;;;;10415030;28;20020;-70
2023/10/13 11:53:55;;;;;;;1219.78;999.90;;;;;;;;;;10415430;28;20315;-69
2023/10/13 11:59:01;;;;;;;1203.78;999.90;;;;;;;;;;10422919;28;20024;-69
2023/10/13 12:14:56;;;;;;;1164.57;999.90;;;;;;;;;;10407855;28;20071;-69
2023/10/13 12:19:59;;;;;;;1153.90;999.90;;;;;;;;;;10422003;28;20246;-71
2023/10/13 12:25:04;;;;;;;1160.03;999.90;;;;;;;;;;10421844;28;20231;-69
2023/10/13 12:30:07;;;;;;;1172.97;999.90;;;;;;;;;;10421679;28;20029;-69
2023/10/13 12:51:07;;;;;;;940.00;850.72;;;;;;;;;;10421193;28;20183;-69
2023/10/13 12:56:11;;;;;;;1181.38;999.90;;;;;;;;;;10420652;28;20022;-69
2023/10/13 13:01:13;;;;;;;1210.18;999.90;;;;;;;;;;10420468;28;20332;-69
2023/10/13 13:06:26;;;;;;;1193.05;999.90;;;;;;;;;;10420166;28;20317;-69
2023/10/13 13:11:29;;;;;;;1171.72;999.90;;;;;;;;;;10420130;28;20129;-70
2023/10/13 13:16:30;;;;;;;1180.95;999.90;;;;;;;;;;10420011;28;20017;-70
2023/10/13 13:21:30;;;;;;;1054.22;955.92;;;;;;;;;;10419611;28;20029;-69
2023/10/13 13:26:33;;;;;;;1174.13;999.90;;;;;;;;;;10419642;28;20033;-70
2023/10/13 13:31:33;;;;;;;1168.00;999.90;;;;;;;;;;10418546;28;20044;-69
2023/10/13 13:36:34;;;;;;;1126.50;999.90;;;;;;;;;;10419175;28;20211;-69
2023/10/13 13:41:34;;;;;;;1168.07;999.90;;;;;;;;;;10418659;28;20055;-69
2023/10/13 13:46:40;;;;;;;1163.80;999.90;;;;;;;;;;10418771;28;20295;-68
2023/10/13 13:51:41;;;;;;;1162.07;999.90;;;;;;;;;;10418803;28;20207;-67
2023/10/13 13:56:41;;;;;;;1156.50;999.90;;;;;;;;;;10418416;28;20029;-68
2023/10/13 14:01:44;;;;;;;1144.93;999.90;;;;;;;;;;10415776;28;20393;-68
2023/10/13 14:06:44;;;;;;;1139.25;999.90;;;;;;;;;;10416192;28;20021;-69
2023/10/13 14:17:06;;;;;;;1153.28;999.90;;;;;;;;;;10413717;28;20021;-69
2023/10/13 14:22:06;;;;;;;1149.40;999.90;;;;;;;;;;10416756;28;20024;-70
2023/10/13 14:27:17;;;;;;;1143.15;999.90;;;;;;;;;;10415797;28;20274;-69
2023/10/13 14:32:17;;;;;;;1143.63;999.90;;;;;;;;;;10415209;28;20022;-69
2023/10/13 14:37:26;;;;;;;1151.38;999.90;;;;;;;;;;10415174;28;20331;-68
2023/10/13 14:42:26;;;;;;;1132.20;999.90;;;;;;;;;;10398522;28;20100;-72
2023/10/13 14:47:27;;;;;;;1138.45;999.90;;;;;;;;;;10416364;28;20022;-71
2023/10/13 14:52:27;;;;;;;1178.47;999.90;;;;;;;;;;10416667;28;20219;-71
2023/10/13 14:57:27;;;;;;;1147.03;999.90;;;;;;;;;;10415346;28;20009;-71
2023/10/13 15:02:27;;;;;;;1141.70;999.90;;;;;;;;;;10414803;28;20199;-71
2023/10/13 15:07:28;;;;;;;1181.15;999.90;;;;;;;;;;10415828;28;20080;-71
2023/10/13 15:12:28;;;;;;;1132.38;999.90;;;;;;;;;;10415671;28;20036;-70
2023/10/13 15:17:29;;;;;;;944.03;867.45;;;;;;;;;;10416182;28;20096;-70
2023/10/13 15:22:29;;;;;;;1120.75;999.90;;;;;;;;;;10415930;28;20316;-70
2023/10/13 15:27:29;;;;;;;1117.23;999.90;;;;;;;;;;10414131;28;20247;-71
2023/10/13 15:32:42;;;;;;;1121.67;999.90;;;;;;;;;;10414716;28;20067;-71
2023/10/13 15:37:47;;;;;;;1125.78;999.90;;;;;;;;;;10414531;28;20065;-70
2023/10/13 15:42:47;;;;;;;1118.95;999.90;;;;;;;;;;10415100;28;20033;-70
2023/10/13 15:47:47;;;;;;;1116.60;999.90;;;;;;;;;;10415596;28;20088;-70
2023/10/13 15:52:48;;;;;;;21.23;5.20;;;;;;;;;;10414908;28;20050;-70
2023/10/13 15:57:52;;;;;;;897.88;812.40;;;;;;;;;;10413785;28;20039;-70
2023/10/13 16:02:54;;;;;;;29.50;6.03;;;;;;;;;;10414714;28;20317;-70
2023/10/13 16:07:54;;;;;;;30.48;6.70;;;;;;;;;;10414729;28;20316;-70
2023/10/13 16:12:57;;;;;;;1082.70;978.85;;;;;;;;;;10414693;28;20021;-70
2023/10/13 16:17:58;;;;;;;27.17;7.32;;;;;;;;;;10414253;28;20018;-70
2023/10/13 16:22:58;;;;;;;26.38;7.65;;;;;;;;;;10415187;28;20100;-71
2023/10/13 16:27:59;;;;;;;567.00;510.73;;;;;;;;;;10414204;28;20045;-70
2023/10/13 16:32:59;;;;;;;25.07;6.70;;;;;;;;;;10414048;28;20305;-70
2023/10/13 16:38:06;;;;;;;1045.82;942.88;;;;;;;;;;10413953;28;20648;-69
2023/10/13 16:43:09;;;;;;;29.48;7.32;;;;;;;;;;10416584;28;20156;-70
2023/10/13 16:48:13;;;;;;;1082.15;978.10;;;;;;;;;;10419289;28;20200;-67
2023/10/13 16:53:13;;;;;;;1020.00;920.10;;;;;;;;;;10420542;28;20132;-69
2023/10/13 16:58:13;;;;;;;1018.28;917.75;;;;;;;;;;10420038;28;20215;-70
2023/10/13 17:03:15;;;;;;;17.10;4.97;;;;;;;;;;10420046;28;20098;-69
2023/10/13 17:08:15;;;;;;;26.42;6.05;;;;;;;;;;10419534;28;20672;-70
2023/10/13 17:13:16;;;;;;;20.50;5.40;;;;;;;;;;10417883;28;20199;-68
2023/10/13 17:18:16;;;;;;;19.00;6.63;;;;;;;;;;10418791;28;20036;-68
2023/10/13 17:23:16;;;;;;;258.87;232.30;;;;;;;;;;10419621;28;20037;-68
2023/10/13 17:28:17;;;;;;;23.90;7.07;;;;;;;;;;10418646;28;20317;-70
2023/10/13 17:33:17;;;;;;;11.23;5.40;;;;;;;;;;10418910;28;20029;-69
2023/10/13 17:38:17;;;;;;;18.13;5.68;;;;;;;;;;10418818;28;20231;-70
2023/10/13 17:43:18;;;;;;;24.38;6.43;;;;;;;;;;10418505;28;20045;-70
2023/10/13 17:48:18;;;;;;;27.40;6.47;;;;;;;;;;10417205;28;20104;-68
2023/10/13 17:53:18;;;;;;;27.27;6.75;;;;;;;;;;10420132;28;20029;-68
2023/10/13 17:58:21;;;;;;;23.27;7.28;;;;;;;;;;10417972;28;20029;-68
2023/10/13 18:03:21;;;;;;;24.38;7.28;;;;;;;;;;10417677;28;20033;-68
2023/10/13 18:08:22;;;;;;;22.98;6.43;;;;;;;;;;10417899;28;20033;-68
2023/10/13 18:13:23;;;;;;;19.23;6.82;;;;;;;;;;10417579;28;20214;-68
2023/10/13 18:18:23;;;;;;;807.60;729.70;;;;;;;;;;10417318;28;20051;-73
2023/10/13 18:23:23;;;;;;;1059.10;958.23;;;;;;;;;;10417362;28;20017;-70
2023/10/13 18:28:23;;;;;;;12.27;5.45;;;;;;;;;;10416984;28;20037;-73
2023/10/13 18:33:24;;;;;;;10.15;4.22;;;;;;;;;;10416553;28;20048;-70
2023/10/13 18:38:25;;;;;;;13.90;5.60;;;;;;;;;;10416408;28;20128;-70
2023/10/13 18:43:25;;;;;;;13.43;4.68;;;;;;;;;;10416904;28;20052;-70
2023/10/13 18:48:26;;;;;;;21.65;5.25;;;;;;;;;;10415821;28;20017;-69
2023/10/13 18:53:28;;;;;;;13.63;5.00;;;;;;;;;;10415953;28;20153;-75
2023/10/13 18:58:29;;;;;;;10.05;4.13;;;;;;;;;;10410859;28;20439;-69
2023/10/13 19:03:29;;;;;;;13.95;5.25;;;;;;;;;;10415232;28;20072;-69
2023/10/13 19:08:31;;;;;;;21.00;8.90;;;;;;;;;;10415554;28;20318;-68
2023/10/13 19:13:31;;;;;;;9.00;2.90;;;;;;;;;;10407195;28;20021;-70
2023/10/13 19:18:32;;;;;;;10.68;4.15;;;;;;;;;;10416198;28;20333;-70
2023/10/13 19:23:32;;;;;;;9.90;3.33;;;;;;;;;;10416329;28;20022;-70
2023/10/13 19:28:33;;;;;;;9.55;2.80;;;;;;;;;;10413495;28;20234;-70
2023/10/13 19:33:33;;;;;;;846.40;780.70;;;;;;;;;;10414530;28;20053;-69
2023/10/13 19:38:33;;;;;;;978.20;904.42;;;;;;;;;;10414562;28;20045;-68
2023/10/13 19:43:34;;;;;;;921.45;848.10;;;;;;;;;;10414906;28;20025;-70
2023/10/13 19:48:34;;;;;;;1026.82;942.17;;;;;;;;;;10414790;28;20533;-68
2023/10/13 19:53:34;;;;;;;787.88;730.47;;;;;;;;;;10413053;28;20227;-69
2023/10/13 19:58:35;;;;;;;942.88;868.90;;;;;;;;;;10414042;28;20184;-69
2023/10/13 20:03:40;;;;;;;577.10;538.65;;;;;;;;;;10413454;28;20029;-69
2023/10/13 20:08:41;;;;;;;755.17;702.63;;;;;;;;;;10414170;28;20049;-69
2023/10/13 20:13:45;;;;;;;767.80;713.27;;;;;;;;;;10413800;28;20242;-70
2023/10/13 20:18:46;;;;;;;993.17;917.90;;;;;;;;;;10418497;28;20310;-70
2023/10/13 20:23:46;;;;;;;990.90;897.10;;;;;;;;;;10421250;28;20405;-69
2023/10/13 20:28:46;;;;;;;990.13;893.20;;;;;;;;;;10420597;28;20410;-71
2023/10/13 20:33:47;;;;;;;998.57;905.30;;;;;;;;;;10413217;28;20052;-71
2023/10/13 20:38:50;;;;;;;1030.53;947.40;;;;;;;;;;10421590;28;20108;-71
2023/10/13 20:43:51;;;;;;;1047.22;948.72;;;;;;;;;;10411276;28;20153;-71
2023/10/13 20:48:53;;;;;;;996.95;914.03;;;;;;;;;;10420282;28;20025;-70
2023/10/13 20:53:54;;;;;;;989.78;901.10;;;;;;;;;;10421802;28;20207;-71
2023/10/13 20:58:59;;;;;;;1017.20;928.78;;;;;;;;;;10421504;28;20017;-72
2023/10/13 21:04:02;;;;;;;1011.53;925.42;;;;;;;;;;10422048;28;20326;-71
2023/10/13 21:09:03;;;;;;;1017.00;933.70;;;;;;;;;;10421307;28;20021;-71
2023/10/13 21:14:04;;;;;;;982.92;889.63;;;;;;;;;;10420795;28;20018;-71
2023/10/13 21:19:04;;;;;;;1014.42;915.33;;;;;;;;;;10420560;28;20017;-71
2023/10/13 21:24:09;;;;;;;997.47;901.92;;;;;;;;;;10420347;28;20013;-71
2023/10/13 21:29:09;;;;;;;1010.13;912.95;;;;;;;;;;10420019;28;20071;-72
2023/10/13 21:34:10;;;;;;;1003.42;905.53;;;;;;;;;;10419871;28;20060;-71
2023/10/13 21:39:10;;;;;;;1006.78;909.08;;;;;;;;;;10419884;28;20531;-71
2023/10/13 21:44:12;;;;;;;1028.50;931.73;;;;;;;;;;10419564;28;20283;-71
2023/10/13 21:49:12;;;;;;;1014.55;922.03;;;;;;;;;;10423049;28;20249;-71
2023/10/13 21:54:12;;;;;;;1040.73;940.13;;;;;;;;;;10388915;28;20546;-71
2023/10/13 21:59:12;;;;;;;1004.72;906.20;;;;;;;;;;10403275;28;20055;-71
2023/10/13 22:04:20;;;;;;;997.58;900.17;;;;;;;;;;10419049;28;20080;-71
2023/10/13 22:09:20;;;;;;;1016.07;920.53;;;;;;;;;;10418273;28;20048;-70
2023/10/13 22:14:22;;;;;;;989.10;895.92;;;;;;;;;;10417563;28;20314;-72
2023/10/13 22:19:22;;;;;;;949.65;862.60;;;;;;;;;;10405589;28;20029;-72
2023/10/13 22:24:23;;;;;;;966.33;874.20;;;;;;;;;;10393448;28;20255;-72
2023/10/13 22:29:23;;;;;;;974.17;879.03;;;;;;;;;;10418199;28;20014;-72
2023/10/13 22:34:23;;;;;;;981.08;888.20;;;;;;;;;;10417093;28;20189;-71
2023/10/13 22:39:25;;;;;;;1010.03;912.10;;;;;;;;;;10416881;28;20368;-71
2023/10/13 22:44:25;;;;;;;5.05;2.90;;;;;;;;;;10416314;28;20214;-72
2023/10/13 22:49:25;;;;;;;7.27;3.07;;;;;;;;;;10417683;28;20009;-72
2023/10/13 22:54:29;;;;;;;11.98;3.28;;;;;;;;;;10417838;28;20395;-72
2023/10/13 22:59:29;;;;;;;6.57;3.33;;;;;;;;;;10415694;28;20018;-72
2023/10/13 23:04:32;;;;;;;7.28;3.15;;;;;;;;;;10416684;28;20017;-72
2023/10/13 23:09:33;;;;;;;8.55;3.30;;;;;;;;;;10416249;28;20073;-72
2023/10/13 23:14:33;;;;;;;13.77;3.78;;;;;;;;;;10416882;28;20021;-72
2023/10/13 23:19:35;;;;;;;7.83;3.17;;;;;;;;;;10416588;28;20094;-71
2023/10/13 23:24:36;;;;;;;6.07;3.08;;;;;;;;;;10415844;28;20315;-70
2023/10/13 23:29:36;;;;;;;8.23;3.75;;;;;;;;;;10415556;28;20310;-71
2023/10/13 23:34:37;;;;;;;9.43;3.95;;;;;;;;;;10416186;28;20021;-71
2023/10/13 23:39:37;;;;;;;8.35;3.88;;;;;;;;;;10415452;28;20126;-70
2023/10/13 23:44:37;;;;;;;9.18;3.60;;;;;;;;;;10415334;28;20370;-71
2023/10/13 23:49:37;;;;;;;8.13;3.80;;;;;;;;;;10415990;28;20076;-71
2023/10/13 23:54:41;;;;;;;6.35;4.10;;;;;;;;;;10424184;28;20056;-71
2023/10/13 23:59:41;;;;;;;8.07;4.25;;;;;;;;;;10423978;28;20247;-70
